Airfield :
LOGIN :

Register | Disclaimer

   EN    FR    IT 

 










Legend :    VFR   Marginal VFR   IFR   Intensive IFR   Very Intensive IFR
Visi :
Ceiling :
>= 8 km
>= 3000ft
5 to 8 km
1000 to 3000 ft
1500m to 5 km
500 to 1000 ft
800 to 1500m
200 to 500 ft
< 800m
< 200 ft
Symbols :   Thunderstorms  Fog  Heavy snow  Heavy precipitations  Wind > 20 kt
SIGMETs :     Misc.  Thunderstorms  Icing  Turbulence  Mountain Waves  Volcanic Ashes






- Airport Elevation : 20 ft
- IATA code : LSI


EGPB - Sumburgh

CURRENT METAR :
  • 271750Z 30016KT 9999 VCSH SCT014CB SCT028 05/M00 Q0991 RERA NOSIG

EXPIRED METARs :
  • 271720Z 28019KT 9999 5000W SHRAGS BKN016CB 05/01 Q0990 TEMPO NSW
  • 271650Z 29016G27KT 9999 VCSH BKN018CB 05/00 Q0990
  • 271620Z 30014G24KT 9999 VCSH SCT016CB SCT028 05/00 Q0990 NOSIG
  • 271550Z 30013KT 9999 VCSH SCT016CB 05/00 Q0989 NOSIG
  • 271520Z 30011KT 9999 VCSH SCT016CB SCT026 05/01 Q0989 NOSIG

TAF TAF EGPB
Valid from the 27 at 18:00 until the 28 at 03:00 UTC


271702Z 2718/2803 29012KT 9999 FEW012CB
TEMPO 2718/2724 5000 SHRAGS BKN012CB
PROB30
TEMPO 2718/2722 30018G28KT 1200 SHSN BKN008CB



MET'MAP, your aeronautical weather chart ! - Copyright ORBIFLY December 2007 - Disclaimer

ORBIFLY MET'MAP TEAM :

Programming & Development : Alexandra Zaïnal
Concept & original design : Baudouin d'Aumeries
Assistance for programming : Marc-Olivier Méhu
Technical & hardware support : Manuel Goepfert

Contact : metmap@orbifly.com




SOURCES & CREDITS :

   NOAA